Terminal Aerodrome Forecast
Issued by NWS Sterling, VA

Current Version | Previous Version | Graphics & Text | Print | Product List | Glossary On
Versions: 1 2 3 4 5 6 7 8 9 10 11 12 13 14 15 16 17 18 19 20 21 22 23
000
FTUS41 KLWX 132100 AAA
TAFDCA
TAF AMD
KDCA 132141Z 1322/1418 33012G20KT P6SM SCT025 BKN040
     FM140000 34012G18KT P6SM FEW050
     FM140700 35010KT P6SM SKC
     FM141200 01007KT P6SM SKC=

USA.gov is the U.S. government's official web portal to all federal, state and local government web resources and services.